Scribner, NE (68057)

9:28 AM CST on January 24, 2017 (GMT -0600)
Southwest Hill | | Change Station
Active Advisory: Winter Weather Advisory

Elev 1320 ft 41.61 °N, 96.55 °W | Updated 1 minute ago

Overcast
Overcast
30.4 °F
Feels Like 30 °F
N
0.0
Wind Variable Wind from ENE
Gusts 0.0 mph

Today
High -- | Low -- °F
--% Chance of Precip.
Yesterday
High -- | Low -- °F
Precip. -- in
Pressure 29.71 in
Visibility 5.0 miles
Clouds Overcast 600 ft
Windchill 30 °F
Dew Point 29 °F
Humidity 95%
Rainfall 0.00 in
Snow Depth Not available.
7:45 AM 5:32 PM
Waning Crescent, 11% visible
METAR KFET 241515Z AUTO 08014G19KT 5SM BR OVC006 00/M01 A2971 RMK AO2 T10051008
Pressure 29.71 in
Visibility 5.0 miles
Clouds Overcast 600 ft
Windchill 30 °F
Dew Point 29 °F
Humidity 95%
Rainfall 0.00 in
Snow Depth Not available.
7:45 AM 5:32 PM
Waning Crescent, 11% visible
METAR KFET 241515Z AUTO 08014G19KT 5SM BR OVC006 00/M01 A2971 RMK AO2 T10051008

Get Your Daily Forecast Email!

Thanks for signing up!

Be on the lookout for a verification email in your inbox.

You'll start receiving the daily forecast at 8 AM.

×

10-Day Weather Forecast

Almanac

Astronomy

Jan. 24, 2017 Rise Set
Actual Time
Civil Twilight
Nautical Twilight
Astronomical Twilight
Moon
Length of Visible Light
Length of Day
Tomorrow will be .
, % of the Moon is Illuminated

Today's Extremes

State Highs State Lows

Community

WunderPhotos

Upload Photos

1,962,540 photos uploaded!

WunderBlog® & News

Nearby

Air Quality

  Air Quality AQ Index Pollutant
Not available.

Snow Depth

Station Depth Elevation

Earthquake Activity

City Distance Mag. Time & Date
Minimum magnitude displayed is 2.5.

Coastal Water Temperatures

Place Temperature

Stations

Nearby Weather Stations

Station Location Temp. Windchill Dew Point Humidity Wind Precip. Elev Updated Type
                   

Watches & Warnings

Winter Weather Advisory
Issued: 2:34 AM CST Jan. 24, 2017 – National Weather Service

... Winter Weather Advisory remains in effect until 9 am CST
Wednesday...

* timing... light snow... possibly mixed with sleet... will begin
this morning and then become moderate or possibly heavy at times
this afternoon into tonight. The snow should gradually taper
off Wednesday morning.

* Main impact... hazardous travel due to snow packed roads and
reduced visibilities with blowing and drifting snow.

* Accumulations... snow accumulations from 3 to 6 inches are
possible.

* Winds... north or northwest winds from 15 to 30 mph could cause
considerable blowing and drifting snow... especially from this
evening into Wednesday morning.

Precautionary/preparedness actions...

A Winter Weather Advisory for snow and blowing snow means that
moderate snow accumulations are expected. Visibilities will also
be limited due to a combination of falling snow and blowing snow.
Use extra caution when traveling.